Time;durP1;ratioP1;P1;durP2;ratioP2;P2;SDS_P1;SDS_P2;PMS_P1;PMS_P2;Temp;Humidity;BMP_temperature;BMP_pressure;BME280_temperature;BME280_humidity;BME280_pressure;Samples;Min_cycle;Max_cycle;Signal;HPM_P1;HPM_P2
2021/01/28 00:02:12;;;;;;;;;;;;;;;2.00;56.90;100525.53;5082570;28;20494;-71
2021/01/28 00:05:17;;;;;;;;;;;;;;;2.02;56.59;100525.47;5094923;28;19916;-71
2021/01/28 00:08:22;;;;;;;8.05;4.47;;;;;;;1.96;56.55;100530.13;5094903;28;19916;-72
2021/01/28 00:11:26;;;;;;;6.75;4.68;;;;;;;1.91;56.37;100534.78;5094248;28;20067;-71
2021/01/28 00:14:30;;;;;;;7.65;4.38;;;;;;;1.87;56.05;100535.03;5094503;28;20050;-71
2021/01/28 00:17:35;;;;;;;9.07;5.15;;;;;;;1.85;56.44;100539.53;5094299;28;20055;-71
2021/01/28 00:20:44;;;;;;;8.43;4.57;;;;;;;1.84;56.65;100535.16;5094355;28;20047;-71
2021/01/28 00:23:48;;;;;;;8.57;4.53;;;;;;;1.83;56.78;100529.00;5094309;28;20051;-70
2021/01/28 00:26:52;;;;;;;14.30;4.82;;;;;;;1.83;56.65;100529.00;5094531;28;20499;-72
2021/01/28 00:29:57;;;;;;;7.25;4.80;;;;;;;1.87;56.37;100527.94;5094223;28;20063;-71
2021/01/28 00:33:01;;;;;;;7.95;4.90;;;;;;;1.86;55.86;100526.22;5093081;28;20055;-71
2021/01/28 00:36:07;;;;;;;9.38;4.72;;;;;;;1.89;55.81;100517.28;5104633;28;20055;-71
2021/01/28 00:39:11;;;;;;;6.97;4.50;;;;;;;1.88;55.39;100516.41;5093282;28;20051;-71
2021/01/28 00:42:16;;;;;;;6.75;4.20;;;;;;;1.89;55.17;100525.22;5094123;28;20055;-71
2021/01/28 00:45:23;;;;;;;6.60;4.35;;;;;;;1.90;55.33;100529.59;5093807;28;20517;-71
2021/01/28 00:48:31;;;;;;;6.68;4.25;;;;;;;1.84;55.35;100514.88;5094016;28;20065;-71
2021/01/28 00:51:35;;;;;;;6.63;3.97;;;;;;;1.83;55.70;100510.50;5094275;28;20122;-71
2021/01/28 00:54:39;;;;;;;6.78;4.03;;;;;;;1.84;55.18;100511.34;5093486;28;20047;-71
2021/01/28 00:57:44;;;;;;;5.70;3.97;;;;;;;1.82;54.88;100519.38;5093804;28;20047;-71
2021/01/28 01:00:49;;;;;;;8.25;4.40;;;;;;;1.81;54.46;100512.38;5093086;28;20051;-71
2021/01/28 01:03:54;;;;;;;6.97;4.30;;;;;;;1.82;54.70;100515.88;5092593;28;20047;-70
2021/01/28 01:06:58;;;;;;;8.68;4.60;;;;;;;1.80;54.80;100513.28;5093039;28;20371;-71
2021/01/28 01:10:07;;;;;;;7.05;4.05;;;;;;;1.79;54.68;100511.59;5093260;28;20051;-71
2021/01/28 01:13:15;;;;;;;6.63;4.15;;;;;;;1.74;54.78;100515.38;5092987;28;20486;-70
2021/01/28 01:16:19;;;;;;;7.43;4.38;;;;;;;1.70;55.20;100508.53;5093131;28;20063;-71
2021/01/28 01:19:30;;;;;;;5.78;3.85;;;;;;;1.67;55.95;100522.78;5096689;28;20075;-70
2021/01/28 01:22:51;;;;;;;6.85;4.43;;;;;;;1.65;56.00;100519.34;5097140;28;20058;-70
2021/01/28 01:25:56;;;;;;;7.13;4.00;;;;;;;1.60;56.67;100505.50;5097577;28;20375;-71
2021/01/28 01:29:01;;;;;;;8.32;4.00;;;;;;;1.58;57.06;100515.25;5096758;28;20383;-72
2021/01/28 01:32:36;;;;;;;7.57;4.05;;;;;;;1.56;57.43;100501.25;5096636;28;20039;-71
2021/01/28 01:35:59;;;;;;;7.82;3.92;;;;;;;1.53;57.66;100509.34;5096815;28;20051;-69
2021/01/28 01:39:04;;;;;;;5.63;3.88;;;;;;;1.52;57.71;100512.94;5096093;28;20115;-72
2021/01/28 01:42:19;;;;;;;6.15;4.15;;;;;;;1.49;57.90;100504.28;5096460;28;20576;-71
2021/01/28 01:45:31;;;;;;;8.52;3.70;;;;;;;1.48;58.12;100490.19;5107956;28;20059;-71
2021/01/28 01:48:42;;;;;;;6.53;4.20;;;;;;;1.45;58.36;100487.72;5097311;28;20102;-72
2021/01/28 01:51:47;;;;;;;5.85;3.80;;;;;;;1.44;58.15;100485.13;5108080;28;20043;-71
2021/01/28 01:55:08;;;;;;;12.63;4.28;;;;;;;1.45;58.30;100474.50;5096534;28;20055;-72
2021/01/28 01:58:38;;;;;;;6.78;4.38;;;;;;;1.46;58.30;100475.38;5096117;28;20494;-70
2021/01/28 02:02:14;;;;;;;9.25;3.80;;;;;;;1.42;58.36;100471.13;5096902;28;20067;-71
2021/01/28 02:05:43;;;;;;;5.93;3.95;;;;;;;1.42;58.76;100474.63;5096911;28;20490;-72
2021/01/28 02:09:08;;;;;;;11.02;4.10;;;;;;;1.41;58.73;100488.78;5096425;28;20047;-71
2021/01/28 02:12:29;;;;;;;7.30;3.90;;;;;;;1.41;58.69;100502.00;5096194;28;20510;-72
2021/01/28 02:15:40;;;;;;;6.85;3.85;;;;;;;1.41;58.19;100494.06;5095661;28;20043;-72
2021/01/28 02:18:45;;;;;;;7.65;4.05;;;;;;;1.40;58.39;100497.66;5106795;28;20046;-71
2021/01/28 02:21:58;;;;;;;6.55;4.18;;;;;;;1.40;58.17;100488.88;5107729;28;20055;-72
2021/01/28 02:25:21;;;;;;;7.85;3.83;;;;;;;1.36;58.83;100485.50;5107481;28;20047;-71
2021/01/28 02:28:26;;;;;;;6.78;3.70;;;;;;;1.36;58.85;100495.25;5096533;28;20047;-71
2021/01/28 02:31:31;;;;;;;6.93;4.38;;;;;;;1.38;58.69;100509.25;5096586;28;20050;-70
2021/01/28 02:34:38;;;;;;;7.72;3.95;;;;;;;1.36;58.28;100508.47;5095491;28;20055;-72
2021/01/28 02:37:49;;;;;;;9.85;4.15;;;;;;;1.35;57.79;100501.44;5095545;28;20047;-70
2021/01/28 02:40:57;;;;;;;6.47;3.72;;;;;;;1.37;57.60;100500.44;5095412;28;20063;-71
2021/01/28 02:44:08;;;;;;;7.60;4.15;;;;;;;1.39;57.54;100501.22;5107054;28;20395;-72
2021/01/28 02:47:19;;;;;;;5.32;3.50;;;;;;;1.38;56.99;100496.03;5096138;28;20051;-71
2021/01/28 02:50:56;;;;;;;7.40;3.63;;;;;;;1.38;56.91;100483.66;5042610;28;20140;-70
2021/01/28 02:54:03;;;;;;;6.95;3.60;;;;;;;1.38;55.80;100499.53;5053773;28;20064;-72
2021/01/28 02:57:12;;;;;;;7.80;3.67;;;;;;;1.40;55.52;100492.38;5042195;28;20142;-71
2021/01/28 03:00:22;;;;;;;6.50;4.10;;;;;;;1.38;55.57;100488.94;5053436;28;20055;-70
2021/01/28 03:03:27;;;;;;;6.53;3.65;;;;;;;1.38;55.34;100485.44;5053491;28;20048;-71
2021/01/28 03:06:32;;;;;;;6.70;3.47;;;;;;;1.33;55.26;100479.53;5042326;28;20424;-72
2021/01/28 03:09:36;;;;;;;6.15;3.50;;;;;;;1.31;55.54;100464.56;5041935;28;20551;-72
2021/01/28 03:13:02;;;;;;;5.07;3.65;;;;;;;1.24;55.97;100460.50;5053274;28;20063;-71
2021/01/28 03:16:27;;;;;;;5.55;3.65;;;;;;;1.21;56.50;100444.78;5041752;28;20048;-71
2021/01/28 03:19:51;;;;;;;5.43;3.50;;;;;;;1.23;56.96;100447.38;5052743;28;20060;-72
2021/01/28 03:22:58;;;;;;;6.07;3.95;;;;;;;1.25;56.69;100448.16;5041716;28;20045;-72
2021/01/28 03:26:28;;;;;;;8.15;3.72;;;;;;;1.17;57.19;100463.53;5081633;28;20047;-71
2021/01/28 03:29:33;;;;;;;6.63;3.60;;;;;;;1.15;56.97;100460.09;5106372;28;20047;-71
2021/01/28 03:32:39;;;;;;;5.30;3.47;;;;;;;1.15;57.15;100446.88;5094935;28;20051;-71
2021/01/28 03:35:43;;;;;;;7.72;3.42;;;;;;;1.11;56.79;100438.22;5105804;28;20078;-71
2021/01/28 03:38:51;;;;;;;6.78;2.95;;;;;;;1.09;56.97;100439.22;5094204;28;20059;-72
2021/01/28 03:41:56;;;;;;;6.93;3.40;;;;;;;1.09;56.92;100433.94;5105556;28;20510;-71
2021/01/28 03:45:00;;;;;;;4.90;3.30;;;;;;;1.15;56.92;100444.25;5094974;28;20050;-71
2021/01/28 03:48:08;;;;;;;6.25;3.50;;;;;;;1.13;56.61;100451.41;5105855;28;20067;-72
2021/01/28 03:51:31;;;;;;;7.25;3.63;;;;;;;1.13;56.64;100454.03;5094425;28;20055;-72
2021/01/28 03:54:53;;;;;;;6.35;3.38;;;;;;;1.12;56.74;100439.09;5094748;28;20067;-72
2021/01/28 03:58:11;;;;;;;7.35;3.85;;;;;;;1.13;56.95;100443.47;5094193;28;20051;-72
2021/01/28 04:01:19;;;;;;;6.60;3.72;;;;;;;1.14;56.85;100442.50;5105892;28;20069;-72
2021/01/28 04:04:42;;;;;;;6.18;3.90;;;;;;;1.15;56.78;100446.88;5103026;28;20051;-72
2021/01/28 04:08:09;;;;;;;5.28;3.35;;;;;;;1.15;56.79;100460.09;5095267;28;20193;-72
2021/01/28 04:11:31;;;;;;;7.75;3.72;;;;;;;1.14;57.04;100469.81;5105376;28;20047;-71
2021/01/28 04:14:57;;;;;;;4.40;3.17;;;;;;;1.13;57.28;100462.81;5103605;28;20043;-71
2021/01/28 04:18:21;;;;;;;6.75;3.55;;;;;;;1.12;57.12;100460.25;5084938;28;20062;-71
2021/01/28 04:21:33;;;;;;;7.28;3.80;;;;;;;1.11;57.48;100467.31;5105592;28;20074;-71
2021/01/28 04:24:42;;;;;;;5.10;3.28;;;;;;;1.12;57.73;100465.53;5093544;28;20051;-72
2021/01/28 04:27:47;;;;;;;9.02;4.15;;;;;;;1.10;57.64;100455.03;5105431;28;20478;-71
2021/01/28 04:31:12;;;;;;;5.80;3.83;;;;;;;1.07;57.83;100454.31;5094238;28;20470;-71
2021/01/28 04:34:17;;;;;;;8.90;3.47;;;;;;;1.04;58.28;100447.38;5104709;28;20047;-70
2021/01/28 04:37:22;;;;;;;7.72;3.30;;;;;;;1.01;58.24;100434.31;5093110;28;20047;-70
2021/01/28 04:40:34;;;;;;;5.68;3.40;;;;;;;0.99;58.38;100437.94;5096147;28;20395;-71
2021/01/28 04:43:41;;;;;;;6.38;3.85;;;;;;;0.99;58.65;100427.38;5095538;28;20047;-71
2021/01/28 04:47:12;;;;;;;7.07;3.60;;;;;;;1.02;58.83;100440.47;5093227;28;20051;-71
2021/01/28 04:50:29;;;;;;;4.68;2.97;;;;;;;0.94;58.69;100437.34;5073866;28;20047;-71
2021/01/28 04:53:57;;;;;;;7.13;3.45;;;;;;;0.92;59.32;100426.84;5079422;28;20067;-71
2021/01/28 04:57:13;;;;;;;7.30;3.53;;;;;;;0.89;58.85;100410.28;5093850;28;20399;-74
2021/01/28 05:00:23;;;;;;;5.38;3.30;;;;;;;0.85;59.19;100411.34;5079876;28;20051;-75
2021/01/28 05:03:50;;;;;;;5.78;3.40;;;;;;;0.85;59.41;100411.34;5096398;28;20043;-74
2021/01/28 05:07:11;;;;;;;6.45;3.80;;;;;;;0.82;59.29;100398.25;5089788;28;20051;-73
2021/01/28 05:10:45;;;;;;;7.30;3.08;;;;;;;0.80;59.66;100394.84;5077367;28;20047;-72
2021/01/28 05:14:36;;;;;;;12.35;3.92;;;;;;;0.76;59.81;100402.06;5095692;28;20047;-72
2021/01/28 05:18:03;;;;;;;6.72;4.05;;;;;;;0.73;60.17;100401.34;5040600;28;20505;-74
2021/01/28 05:21:37;;;;;;;6.25;3.97;;;;;;;0.68;60.76;100396.28;5043905;28;20060;-75
2021/01/28 05:25:15;;;;;;;7.45;3.85;;;;;;;0.71;61.44;100400.56;5054896;28;20056;-74
2021/01/28 05:28:41;;;;;;;7.85;3.75;;;;;;;0.67;61.13;100404.28;5054865;28;20056;-74
2021/01/28 05:32:01;;;;;;;7.35;3.53;;;;;;;0.68;60.60;100413.91;5054651;28;20071;-76
2021/01/28 05:35:23;;;;;;;6.50;3.70;;;;;;;0.67;60.60;100418.34;5053585;28;20149;-72
2021/01/28 05:38:47;;;;;;;;;;;;;;;0.71;60.61;100419.06;5054520;28;20052;-75
2021/01/28 05:42:28;;;;;;;6.43;3.55;;;;;;;0.71;59.87;100430.50;5026519;28;19921;-74
2021/01/28 05:45:38;;;;;;;5.15;3.05;;;;;;;0.74;59.16;100442.69;5053671;28;20056;-74
2021/01/28 05:49:17;;;;;;;5.70;3.22;;;;;;;0.79;58.76;100435.41;5054424;28;20554;-74
2021/01/28 05:52:36;;;;;;;9.07;4.30;;;;;;;0.80;58.92;100426.53;5043062;28;20044;-76
2021/01/28 05:55:48;;;;;;;8.75;5.22;;;;;;;0.85;60.52;100422.78;5055650;28;20130;-76
2021/01/28 05:59:08;;;;;;;11.25;4.85;;;;;;;0.92;59.09;100424.19;5066981;28;20051;-75
2021/01/28 06:02:40;;;;;;;7.70;4.05;;;;;;;0.89;58.73;100426.13;5055368;28;20347;-75
2021/01/28 06:06:50;;;;;;;92.10;49.30;;;;;;;0.89;58.83;100408.47;5045342;28;20052;-74
2021/01/28 06:10:25;;;;;;;11.65;5.70;;;;;;;0.84;58.46;100413.13;5076763;28;20051;-73
2021/01/28 06:14:29;;;;;;;10.95;4.30;;;;;;;0.79;59.12;100416.94;5075098;28;20161;-73
2021/01/28 06:18:18;;;;;;;7.72;4.05;;;;;;;0.76;59.18;100423.22;5065234;28;20044;-72
2021/01/28 06:21:57;;;;;;;13.00;4.93;;;;;;;0.72;59.34;100413.69;5037380;28;20052;-72
2021/01/28 06:25:26;;;;;;;6.80;4.10;;;;;;;0.68;59.67;100416.56;5055210;28;20052;-72
2021/01/28 06:29:12;;;;;;;9.23;4.25;;;;;;;0.67;59.69;100426.25;5055368;28;20104;-74
2021/01/28 06:32:47;;;;;;;8.73;5.10;;;;;;;0.62;59.55;100426.47;5074171;28;20043;-72
2021/01/28 06:36:18;;;;;;;15.07;3.80;;;;;;;0.58;60.13;100427.56;5085706;28;20402;-71
2021/01/28 06:39:49;;;;;;;9.60;4.60;;;;;;;0.59;60.63;100421.31;5070929;28;20044;-77
2021/01/28 06:43:44;;;;;;;7.10;4.10;;;;;;;0.61;61.51;100422.13;5077841;28;20072;-74
2021/01/28 06:47:18;;;;;;;7.35;4.05;;;;;;;0.84;64.24;100433.41;5088818;28;20067;-73
2021/01/28 06:51:20;;;;;;;6.22;4.15;;;;;;;0.76;60.41;100443.47;5073804;28;20147;-72
2021/01/28 06:55:01;;;;;;;7.95;4.25;;;;;;;0.76;60.30;100446.13;5056728;28;20060;-72
2021/01/28 06:58:40;;;;;;;10.52;5.07;;;;;;;0.83;60.07;100461.63;5057664;28;20059;-75
2021/01/28 07:01:51;;;;;;;10.35;4.70;;;;;;;0.87;60.03;100460.53;5060970;28;20606;-72
2021/01/28 07:05:36;;;;;;;11.52;4.50;;;;;;;0.92;59.67;100466.47;5073014;28;20055;-73
2021/01/28 07:08:56;;;;;;;8.52;3.75;;;;;;;0.96;59.72;100459.25;5041307;28;20056;-73
2021/01/28 07:12:32;;;;;;;8.20;4.20;;;;;;;1.03;59.42;100453.63;5052636;28;20103;-74
2021/01/28 07:16:19;;;;;;;7.50;3.60;;;;;;;1.08;59.11;100425.19;5051229;28;20036;-76
2021/01/28 07:19:30;;;;;;;5.80;3.63;;;;;;;1.20;58.85;100415.81;5069456;28;20068;-73
2021/01/28 07:22:35;;;;;;;7.45;3.75;;;;;;;1.46;58.75;100411.88;5036089;28;20391;-75
2021/01/28 07:26:07;;;;;;;10.30;5.10;;;;;;;1.75;57.20;100406.81;5048301;28;20060;-73
2021/01/28 07:29:39;;;;;;;9.32;4.80;;;;;;;1.91;56.38;100421.00;5092572;28;20043;-75
2021/01/28 07:32:46;;;;;;;8.88;4.55;;;;;;;2.17;56.31;100405.56;5091969;28;20043;-73
2021/01/28 07:36:13;;;;;;;10.03;4.70;;;;;;;2.41;55.33;100399.81;5103890;28;20055;-75
2021/01/28 07:39:38;;;;;;;12.23;4.97;;;;;;;2.67;54.43;100410.78;5094004;28;20051;-73
2021/01/28 07:43:03;;;;;;;9.20;4.50;;;;;;;2.85;54.28;100412.41;5093631;28;20055;-71
2021/01/28 07:46:27;;;;;;;14.10;5.45;;;;;;;3.39;53.05;100427.00;5099819;28;20047;-71
2021/01/28 07:50:06;;;;;;;9.57;4.70;;;;;;;3.63;51.86;100442.38;5105274;28;20047;-72
2021/01/28 07:53:45;;;;;;;9.05;4.90;;;;;;;3.81;51.31;100451.06;5094329;28;20047;-71
2021/01/28 07:57:36;;;;;;;14.93;5.20;;;;;;;4.16;50.44;100433.91;5093291;28;20070;-71
2021/01/28 08:00:43;;;;;;;14.00;4.88;;;;;;;5.23;47.98;100420.94;5100907;28;20055;-72
2021/01/28 08:04:06;;;;;;;10.93;5.25;;;;;;;7.25;43.44;100429.13;5094269;28;20047;-74
2021/01/28 08:07:19;;;;;;;8.32;4.65;;;;;;;9.35;38.69;100421.56;5093498;28;20501;-72
2021/01/28 08:10:36;;;;;;;15.18;5.22;;;;;;;10.81;35.60;100410.81;5094007;28;20039;-71
2021/01/28 08:13:41;;;;;;;21.35;4.90;;;;;;;12.03;33.77;100414.91;5093216;28;20379;-72
2021/01/28 08:16:49;;;;;;;10.00;4.70;;;;;;;14.21;29.65;100420.41;5093304;28;20059;-72
2021/01/28 08:20:17;;;;;;;8.88;4.38;;;;;;;15.75;27.22;100414.00;5093918;28;20043;-72
2021/01/28 08:23:26;;;;;;;9.30;3.70;;;;;;;16.64;25.85;100421.16;5093972;28;20047;-72
2021/01/28 08:26:32;;;;;;;10.82;4.18;;;;;;;17.51;24.82;100415.59;5093606;28;20051;-72
2021/01/28 08:29:37;;;;;;;10.05;4.05;;;;;;;17.57;24.29;100411.38;5093922;28;20050;-73
2021/01/28 08:32:44;;;;;;;7.78;4.30;;;;;;;19.46;22.48;100408.25;5093541;28;20059;-73
2021/01/28 08:35:56;;;;;;;8.93;4.30;;;;;;;20.25;21.37;100414.59;5093447;28;20055;-77
2021/01/28 08:39:03;;;;;;;7.28;4.22;;;;;;;22.91;19.20;100406.06;5093602;28;20461;-74
2021/01/28 08:42:14;;;;;;;7.38;4.78;;;;;;;23.52;18.37;100403.81;5093752;28;20071;-72
2021/01/28 08:45:29;;;;;;;10.60;4.43;;;;;;;23.95;17.78;100396.63;5093762;28;20063;-73
2021/01/28 08:48:33;;;;;;;14.00;4.20;;;;;;;23.92;17.86;100410.78;5092779;28;20044;-73
2021/01/28 08:51:41;;;;;;;7.15;4.05;;;;;;;24.22;17.73;100430.25;5093592;28;20047;-78
2021/01/28 08:54:46;;;;;;;8.10;4.00;;;;;;;24.64;17.07;100416.84;5093429;28;20063;-72
2021/01/28 08:58:04;;;;;;;11.52;4.95;;;;;;;25.41;16.65;100395.13;5093558;28;20403;-72
2021/01/28 09:01:13;;;;;;;8.10;3.40;;;;;;;23.80;18.15;100381.56;5093561;28;20055;-72
2021/01/28 09:04:36;;;;;;;14.88;4.72;;;;;;;21.03;20.21;100387.09;5093525;28;20383;-72
2021/01/28 09:07:48;;;;;;;10.50;4.65;;;;;;;18.65;23.23;100411.06;5093920;28;20074;-78
2021/01/28 09:11:04;;;;;;;8.43;5.22;;;;;;;19.00;23.54;100433.13;5093230;28;20051;-77
2021/01/28 09:14:29;;;;;;;11.63;5.30;;;;;;;18.75;23.78;100433.41;5093584;28;20106;-71
2021/01/28 09:17:33;;;;;;;7.15;4.95;;;;;;;19.71;23.35;100443.34;5093299;28;20063;-71
2021/01/28 09:20:37;;;;;;;10.88;4.55;;;;;;;21.28;21.87;100442.91;5093354;28;20055;-72
2021/01/28 09:23:59;;;;;;;8.10;4.45;;;;;;;20.25;22.69;100430.97;5093163;28;20075;-72
2021/01/28 09:27:06;;;;;;;7.40;4.20;;;;;;;18.18;25.07;100434.88;5093368;28;20371;-72
2021/01/28 09:30:22;;;;;;;9.43;4.18;;;;;;;16.49;27.06;100449.09;5093368;28;20055;-75
2021/01/28 09:33:36;;;;;;;8.07;4.68;;;;;;;14.59;29.87;100447.06;5093339;28;20055;-76
2021/01/28 09:36:42;;;;;;;15.93;10.55;;;;;;;13.28;32.11;100434.28;5092796;28;20055;-71
2021/01/28 09:39:51;;;;;;;14.48;5.88;;;;;;;12.01;34.11;100414.22;5094969;28;20071;-71
2021/01/28 09:43:26;;;;;;;12.02;5.07;;;;;;;11.64;34.48;100397.91;5097329;28;20055;-74
2021/01/28 09:46:31;;;;;;;7.78;4.72;;;;;;;10.73;36.96;100402.59;5095909;28;20043;-72
2021/01/28 09:49:35;;;;;;;12.85;4.88;;;;;;;10.02;38.73;100399.88;5096673;28;20071;-72
2021/01/28 09:52:43;;;;;;;8.13;5.88;;;;;;;9.79;39.58;100389.25;5096693;28;20043;-72
2021/01/28 09:55:51;;;;;;;12.07;5.45;;;;;;;9.40;40.50;100387.22;5096841;28;20067;-72
2021/01/28 09:58:56;;;;;;;10.07;6.10;;;;;;;9.55;40.37;100395.81;5096724;28;20061;-72
2021/01/28 10:02:00;;;;;;;9.93;5.35;;;;;;;9.39;40.82;100393.53;5095950;28;20063;-72
2021/01/28 10:05:05;;;;;;;11.35;6.03;;;;;;;9.52;40.70;100393.38;5096400;28;20046;-72
2021/01/28 10:08:10;;;;;;;9.95;5.45;;;;;;;9.26;41.27;100394.69;5096487;28;20047;-79
2021/01/28 10:11:15;;;;;;;10.93;5.65;;;;;;;9.06;41.63;100405.19;5096549;28;20082;-73
2021/01/28 10:14:19;;;;;;;8.65;5.78;;;;;;;8.86;42.20;100395.22;5096201;28;20051;-71
2021/01/28 10:17:23;;;;;;;8.65;6.10;;;;;;;8.60;43.01;100375.03;5095644;28;20049;-72
2021/01/28 10:20:28;;;;;;;9.75;6.03;;;;;;;8.52;43.27;100381.00;5096201;28;20055;-72
2021/01/28 10:23:33;;;;;;;12.50;6.80;;;;;;;8.52;43.70;100389.03;5095248;28;20051;-70
2021/01/28 10:26:37;;;;;;;10.63;7.85;;;;;;;8.82;43.35;100380.38;5095916;28;20047;-72
2021/01/28 10:29:43;;;;;;;11.85;9.32;;;;;;;8.96;43.01;100380.13;5095711;28;20055;-75
2021/01/28 10:32:49;;;;;;;12.05;6.88;;;;;;;9.01;42.15;100366.38;5095873;28;20482;-72
2021/01/28 10:35:57;;;;;;;9.13;6.95;;;;;;;9.07;42.01;100355.16;5095642;28;20433;-72
2021/01/28 10:39:01;;;;;;;9.90;6.18;;;;;;;8.92;42.74;100351.03;5096032;28;20050;-72
2021/01/28 10:42:06;;;;;;;8.82;5.95;;;;;;;9.06;42.12;100342.75;5095181;28;20047;-73
2021/01/28 10:45:15;;;;;;;9.32;6.35;;;;;;;9.17;41.54;100350.75;5095573;28;20062;-71
2021/01/28 10:48:20;;;;;;;12.27;6.85;;;;;;;8.94;42.41;100335.72;5095815;28;20051;-72
2021/01/28 10:51:25;;;;;;;14.25;7.03;;;;;;;9.05;42.61;100320.50;5095484;28;20043;-78
2021/01/28 10:54:29;;;;;;;10.80;6.65;;;;;;;9.13;42.07;100311.84;5095528;28;20051;-72
2021/01/28 10:57:34;;;;;;;12.70;6.68;;;;;;;9.32;41.77;100309.31;5095794;28;20114;-72
2021/01/28 11:00:39;;;;;;;14.40;7.40;;;;;;;9.40;41.87;100300.66;5095728;28;20051;-74
2021/01/28 11:03:43;;;;;;;11.38;7.75;;;;;;;9.45;41.72;100298.44;5095324;28;20051;-72
2021/01/28 11:06:48;;;;;;;13.27;6.30;;;;;;;9.48;41.49;100290.16;5095389;28;20379;-72
2021/01/28 11:09:53;;;;;;;10.02;6.25;;;;;;;9.15;41.57;100289.31;5095228;28;20051;-72
2021/01/28 11:12:59;;;;;;;13.57;6.32;;;;;;;9.06;41.80;100273.16;5095184;28;20047;-73
2021/01/28 11:16:04;;;;;;;9.43;6.40;;;;;;;8.78;42.01;100284.41;5095235;28;20043;-72
2021/01/28 11:19:08;;;;;;;9.40;5.82;;;;;;;8.90;40.70;100272.69;5095177;28;20471;-74
2021/01/28 11:22:12;;;;;;;10.48;6.78;;;;;;;8.79;41.38;100249.50;5095058;28;20051;-72
2021/01/28 11:25:23;;;;;;;8.55;6.00;;;;;;;8.87;41.16;100259.56;5095021;28;20047;-73
2021/01/28 11:28:28;;;;;;;12.30;6.78;;;;;;;8.94;41.13;100274.13;5094984;28;20375;-75
2021/01/28 11:31:35;;;;;;;7.97;5.65;;;;;;;8.89;40.81;100261.13;5094798;28;20059;-71
2021/01/28 11:34:42;;;;;;;8.85;5.75;;;;;;;9.06;41.38;100243.72;5093975;28;20379;-71
2021/01/28 11:37:47;;;;;;;22.00;6.57;;;;;;;8.87;40.72;100235.47;5094714;28;20047;-71
2021/01/28 11:41:09;;;;;;;11.68;6.03;;;;;;;8.72;40.98;100236.72;5094272;28;20051;-71
2021/01/28 11:44:14;;;;;;;10.40;5.57;;;;;;;8.80;40.35;100258.38;5094705;28;20051;-70
2021/01/28 11:47:24;;;;;;;9.70;5.82;;;;;;;8.95;40.22;100266.00;5094805;28;20047;-73
2021/01/28 11:50:28;;;;;;;12.25;6.38;;;;;;;9.18;39.79;100274.81;5093571;28;20062;-76
2021/01/28 11:53:32;;;;;;;10.38;6.28;;;;;;;9.44;39.76;100261.91;5105016;28;20040;-72
2021/01/28 11:56:38;;;;;;;8.43;6.07;;;;;;;9.52;39.09;100256.75;5094385;28;20043;-73
2021/01/28 11:59:43;;;;;;;9.93;5.85;;;;;;;9.37;38.46;100266.94;5093753;28;20051;-72
2021/01/28 12:02:47;;;;;;;11.57;5.60;;;;;;;9.46;39.20;100268.81;5093649;28;20085;-72
2021/01/28 12:05:52;;;;;;;7.55;5.22;;;;;;;9.35;38.64;100265.34;5081736;28;20055;-72
2021/01/28 12:08:56;;;;;;;8.27;5.57;;;;;;;9.01;38.34;100267.34;5094213;28;20490;-71
2021/01/28 12:12:00;;;;;;;11.77;5.68;;;;;;;9.02;38.13;100260.97;5094072;28;20043;-78
2021/01/28 12:15:07;;;;;;;7.97;5.40;;;;;;;8.97;38.25;100257.84;5094076;28;20043;-72
2021/01/28 12:18:18;;;;;;;8.80;5.65;;;;;;;8.94;37.41;100264.28;5093897;28;20051;-71
2021/01/28 12:21:23;;;;;;;9.77;5.88;;;;;;;9.06;37.84;100257.91;5094002;28;20055;-75
2021/01/28 12:24:28;;;;;;;9.40;6.25;;;;;;;9.23;38.57;100258.34;5094161;28;20055;-74
2021/01/28 12:27:33;;;;;;;9.10;5.90;;;;;;;9.31;38.36;100256.72;5094105;28;20494;-72
2021/01/28 12:30:37;;;;;;;9.00;5.32;;;;;;;9.46;38.39;100257.25;5094011;28;20051;-72
2021/01/28 12:33:41;;;;;;;8.38;5.88;;;;;;;9.50;39.32;100243.50;5093748;28;20055;-71
2021/01/28 12:36:46;;;;;;;9.05;5.85;;;;;;;9.60;38.78;100238.19;5092993;28;20051;-72
2021/01/28 12:39:50;;;;;;;9.32;5.20;;;;;;;9.62;38.04;100209.44;5093189;28;20047;-72
2021/01/28 12:42:54;;;;;;;10.20;5.65;;;;;;;9.53;37.58;100200.34;5093797;28;20047;-71
2021/01/28 12:45:59;;;;;;;8.15;5.53;;;;;;;9.48;37.36;100188.34;5093622;28;20474;-72
2021/01/28 12:49:03;;;;;;;8.38;6.20;;;;;;;9.44;37.78;100186.88;5093607;28;20059;-72
2021/01/28 12:52:07;;;;;;;8.63;5.93;;;;;;;9.61;37.63;100160.34;5092933;28;20051;-72
2021/01/28 12:55:13;;;;;;;10.10;6.45;;;;;;;9.65;37.48;100159.06;5093670;28;20059;-73
2021/01/28 12:58:17;;;;;;;12.70;6.68;;;;;;;9.62;38.58;100155.84;5093661;28;20067;-72
2021/01/28 13:01:22;;;;;;;9.88;7.18;;;;;;;9.68;38.94;100156.13;5093866;28;20118;-71
2021/01/28 13:04:26;;;;;;;11.43;6.88;;;;;;;9.52;39.29;100145.06;5093616;28;20486;-72
2021/01/28 13:07:30;;;;;;;9.13;6.57;;;;;;;9.49;39.34;100156.03;5093568;28;20043;-78
2021/01/28 13:10:34;;;;;;;8.85;6.38;;;;;;;9.69;39.00;100151.63;5092730;28;20055;-73
2021/01/28 13:13:41;;;;;;;8.25;6.53;;;;;;;9.72;39.44;100156.72;5095391;28;20051;-72
2021/01/28 13:16:45;;;;;;;9.52;7.03;;;;;;;9.63;39.70;100149.47;5097442;28;20390;-76
2021/01/28 13:19:51;;;;;;;12.45;7.00;;;;;;;9.66;39.91;100154.56;5097454;28;20474;-71
2021/01/28 13:22:59;;;;;;;11.00;7.15;;;;;;;9.70;39.90;100159.53;5097376;28;20055;-72
2021/01/28 13:26:06;;;;;;;11.50;6.90;;;;;;;9.55;40.51;100160.03;5097295;28;20477;-77
2021/01/28 13:29:15;;;;;;;9.77;6.78;;;;;;;9.56;40.54;100137.59;5097336;28;20043;-73
2021/01/28 13:32:19;;;;;;;8.35;6.47;;;;;;;9.74;40.04;100141.34;5097187;28;20058;-72
2021/01/28 13:35:26;;;;;;;8.73;6.22;;;;;;;9.57;40.74;100140.16;5096948;28;20055;-72
2021/01/28 13:38:30;;;;;;;9.95;6.53;;;;;;;9.53;40.79;100135.22;5096898;28;20494;-71
2021/01/28 13:41:35;;;;;;;11.00;6.90;;;;;;;9.47;41.25;100125.00;5096945;28;20058;-72
2021/01/28 13:44:40;;;;;;;12.80;7.47;;;;;;;9.22;42.04;100107.53;5096269;28;20055;-72
2021/01/28 13:47:44;;;;;;;11.05;6.30;;;;;;;9.08;42.25;100084.63;5097098;28;20375;-78
2021/01/28 13:50:51;;;;;;;11.60;7.38;;;;;;;9.00;42.28;100100.50;5096862;28;20055;-73
2021/01/28 13:53:55;;;;;;;10.50;7.22;;;;;;;8.99;40.46;100135.41;5096852;28;20055;-72
2021/01/28 13:57:01;;;;;;;9.88;7.00;;;;;;;9.02;40.69;100117.28;5097017;28;20051;-78
2021/01/28 14:00:08;;;;;;;11.95;6.85;;;;;;;8.97;41.07;100110.59;5096513;28;20485;-71
2021/01/28 14:03:15;;;;;;;10.13;7.13;;;;;;;8.97;41.35;100099.91;5096372;28;20059;-72
2021/01/28 14:06:21;;;;;;;11.77;7.88;;;;;;;8.91;42.24;100089.72;5096588;28;20490;-70
2021/01/28 14:09:26;;;;;;;9.20;7.15;;;;;;;8.81;42.35;100080.78;5096386;28;20051;-75
2021/01/28 14:12:30;;;;;;;9.02;7.05;;;;;;;8.66;42.24;100092.78;5096019;28;20051;-70
2021/01/28 14:15:38;;;;;;;8.75;7.22;;;;;;;8.58;42.71;100090.75;5095487;28;20071;-73
2021/01/28 14:18:43;;;;;;;10.38;6.90;;;;;;;8.52;42.72;100098.44;5096070;28;20070;-72
2021/01/28 14:21:47;;;;;;;10.05;7.55;;;;;;;8.52;43.11;100101.94;5096146;28;20059;-77
2021/01/28 14:24:51;;;;;;;13.95;8.52;;;;;;;8.47;43.98;100098.78;5083171;28;20051;-75
2021/01/28 14:27:55;;;;;;;12.43;7.43;;;;;;;8.49;44.14;100107.56;5096187;28;20051;-74
2021/01/28 14:31:00;;;;;;;10.77;7.97;;;;;;;8.45;44.95;100104.28;5096074;28;20059;-72
2021/01/28 14:34:05;;;;;;;11.82;7.60;;;;;;;8.42;45.88;100104.53;5095934;28;20077;-72
2021/01/28 14:37:14;;;;;;;12.32;7.47;;;;;;;8.47;45.83;100088.94;5094373;28;20063;-72
2021/01/28 14:40:21;;;;;;;13.10;8.07;;;;;;;8.39;44.69;100083.38;5095259;28;20043;-77
2021/01/28 14:43:25;;;;;;;14.93;8.77;;;;;;;8.36;44.77;100083.66;5096005;28;20387;-77
2021/01/28 14:46:30;;;;;;;13.57;7.82;;;;;;;8.32;43.87;100076.03;5095557;28;20065;-78
2021/01/28 14:49:34;;;;;;;10.63;7.60;;;;;;;8.31;43.10;100060.94;5095662;28;20387;-72
2021/01/28 14:52:38;;;;;;;12.75;8.20;;;;;;;8.27;43.89;100070.22;5095424;28;20048;-72
2021/01/28 14:55:43;;;;;;;10.90;8.40;;;;;;;8.28;44.19;100056.69;5095590;28;20509;-72
2021/01/28 14:58:47;;;;;;;9.68;7.90;;;;;;;8.34;44.01;100077.59;5095502;28;20494;-72
2021/01/28 15:01:53;;;;;;;9.82;7.28;;;;;;;8.37;44.99;100082.66;5095314;28;20047;-72
2021/01/28 15:04:58;;;;;;;13.95;7.80;;;;;;;8.36;44.20;100080.13;5095328;28;20055;-72
2021/01/28 15:08:02;;;;;;;9.77;7.53;;;;;;;8.33;44.07;100086.59;5095382;28;20497;-77